sensor_id;sensor_type;location;lat;lon;timestamp;P1;durP1;ratioP1;P2;durP2;ratioP2
57029;SDS011;42920;45.306;20.448;2022-08-14T00:00:07;15.80;;;10.65;;
57029;SDS011;42920;45.306;20.448;2022-08-14T00:02:36;11.35;;;10.15;;
57029;SDS011;42920;45.306;20.448;2022-08-14T00:05:07;12.88;;;11.52;;
57029;SDS011;42920;45.306;20.448;2022-08-14T00:07:34;13.73;;;11.38;;
57029;SDS011;42920;45.306;20.448;2022-08-14T00:10:01;13.05;;;11.00;;
57029;SDS011;42920;45.306;20.448;2022-08-14T00:12:29;12.73;;;11.43;;
57029;SDS011;42920;45.306;20.448;2022-08-14T00:14:57;12.93;;;11.40;;
57029;SDS011;42920;45.306;20.448;2022-08-14T00:17:23;13.10;;;11.02;;
57029;SDS011;42920;45.306;20.448;2022-08-14T00:19:51;13.38;;;10.57;;
57029;SDS011;42920;45.306;20.448;2022-08-14T00:22:16;13.13;;;11.68;;
57029;SDS011;42920;45.306;20.448;2022-08-14T00:24:43;14.05;;;12.23;;
57029;SDS011;42920;45.306;20.448;2022-08-14T00:27:10;15.27;;;11.20;;
57029;SDS011;42920;45.306;20.448;2022-08-14T00:29:36;19.85;;;13.23;;
57029;SDS011;42920;45.306;20.448;2022-08-14T00:32:02;14.43;;;12.65;;
57029;SDS011;42920;45.306;20.448;2022-08-14T00:34:28;17.95;;;12.95;;
57029;SDS011;42920;45.306;20.448;2022-08-14T00:36:54;16.67;;;13.75;;
57029;SDS011;42920;45.306;20.448;2022-08-14T00:39:22;15.27;;;12.57;;
57029;SDS011;42920;45.306;20.448;2022-08-14T00:41:48;16.48;;;13.63;;
57029;SDS011;42920;45.306;20.448;2022-08-14T00:44:15;15.73;;;13.35;;
57029;SDS011;42920;45.306;20.448;2022-08-14T00:46:41;15.75;;;12.98;;
57029;SDS011;42920;45.306;20.448;2022-08-14T00:49:07;18.52;;;14.27;;
57029;SDS011;42920;45.306;20.448;2022-08-14T00:51:33;19.92;;;14.40;;
57029;SDS011;42920;45.306;20.448;2022-08-14T00:53:59;17.60;;;14.02;;
57029;SDS011;42920;45.306;20.448;2022-08-14T00:56:27;14.40;;;12.85;;
57029;SDS011;42920;45.306;20.448;2022-08-14T00:58:53;18.80;;;14.02;;
57029;SDS011;42920;45.306;20.448;2022-08-14T01:01:21;16.83;;;13.00;;
57029;SDS011;42920;45.306;20.448;2022-08-14T01:03:47;17.70;;;13.32;;
57029;SDS011;42920;45.306;20.448;2022-08-14T01:06:13;21.40;;;13.57;;
57029;SDS011;42920;45.306;20.448;2022-08-14T01:08:41;17.27;;;13.10;;
57029;SDS011;42920;45.306;20.448;2022-08-14T01:11:08;16.50;;;12.93;;
57029;SDS011;42920;45.306;20.448;2022-08-14T01:13:40;16.27;;;13.30;;
57029;SDS011;42920;45.306;20.448;2022-08-14T01:16:09;16.02;;;12.95;;
57029;SDS011;42920;45.306;20.448;2022-08-14T01:18:36;17.65;;;13.55;;
57029;SDS011;42920;45.306;20.448;2022-08-14T01:21:22;14.23;;;12.57;;
57029;SDS011;42920;45.306;20.448;2022-08-14T01:24:14;18.55;;;12.93;;
57029;SDS011;42920;45.306;20.448;2022-08-14T01:26:43;15.75;;;13.05;;
57029;SDS011;42920;45.306;20.448;2022-08-14T01:29:11;13.75;;;11.30;;
57029;SDS011;42920;45.306;20.448;2022-08-14T01:31:37;15.10;;;12.52;;
57029;SDS011;42920;45.306;20.448;2022-08-14T01:34:26;13.65;;;11.65;;
57029;SDS011;42920;45.306;20.448;2022-08-14T01:36:52;15.02;;;12.10;;
57029;SDS011;42920;45.306;20.448;2022-08-14T01:39:19;13.18;;;10.88;;
57029;SDS011;42920;45.306;20.448;2022-08-14T01:41:46;12.95;;;11.15;;
57029;SDS011;42920;45.306;20.448;2022-08-14T01:44:23;12.38;;;11.13;;
57029;SDS011;42920;45.306;20.448;2022-08-14T01:46:54;11.02;;;9.82;;
57029;SDS011;42920;45.306;20.448;2022-08-14T01:49:22;14.00;;;11.13;;
57029;SDS011;42920;45.306;20.448;2022-08-14T01:51:49;14.20;;;10.82;;
57029;SDS011;42920;45.306;20.448;2022-08-14T01:54:21;12.43;;;10.20;;
57029;SDS011;42920;45.306;20.448;2022-08-14T01:56:52;15.70;;;10.98;;
57029;SDS011;42920;45.306;20.448;2022-08-14T01:59:26;15.15;;;10.45;;
57029;SDS011;42920;45.306;20.448;2022-08-14T02:01:58;12.02;;;9.40;;
57029;SDS011;42920;45.306;20.448;2022-08-14T02:04:27;14.55;;;10.70;;
57029;SDS011;42920;45.306;20.448;2022-08-14T02:07:04;11.43;;;10.23;;
57029;SDS011;42920;45.306;20.448;2022-08-14T02:09:34;11.57;;;10.38;;
57029;SDS011;42920;45.306;20.448;2022-08-14T02:12:03;11.32;;;9.88;;
57029;SDS011;42920;45.306;20.448;2022-08-14T02:14:30;13.10;;;10.80;;
57029;SDS011;42920;45.306;20.448;2022-08-14T02:16:57;14.88;;;10.52;;
57029;SDS011;42920;45.306;20.448;2022-08-14T02:19:25;11.50;;;10.30;;
57029;SDS011;42920;45.306;20.448;2022-08-14T02:21:53;12.25;;;9.88;;
57029;SDS011;42920;45.306;20.448;2022-08-14T02:24:25;11.35;;;9.57;;
57029;SDS011;42920;45.306;20.448;2022-08-14T02:26:58;14.43;;;10.55;;
57029;SDS011;42920;45.306;20.448;2022-08-14T02:29:27;11.65;;;9.43;;
57029;SDS011;42920;45.306;20.448;2022-08-14T02:31:55;14.52;;;9.45;;
57029;SDS011;42920;45.306;20.448;2022-08-14T02:34:24;11.98;;;9.68;;
57029;SDS011;42920;45.306;20.448;2022-08-14T02:36:56;13.52;;;10.80;;
57029;SDS011;42920;45.306;20.448;2022-08-14T02:39:24;10.73;;;9.40;;
57029;SDS011;42920;45.306;20.448;2022-08-14T02:41:51;11.05;;;9.80;;
57029;SDS011;42920;45.306;20.448;2022-08-14T02:44:17;10.07;;;8.98;;
57029;SDS011;42920;45.306;20.448;2022-08-14T02:46:45;11.25;;;8.95;;
57029;SDS011;42920;45.306;20.448;2022-08-14T02:49:11;11.93;;;9.82;;
57029;SDS011;42920;45.306;20.448;2022-08-14T02:51:37;11.85;;;9.68;;
57029;SDS011;42920;45.306;20.448;2022-08-14T02:54:04;13.43;;;9.93;;
57029;SDS011;42920;45.306;20.448;2022-08-14T02:56:31;10.82;;;9.38;;
57029;SDS011;42920;45.306;20.448;2022-08-14T02:58:57;11.02;;;9.23;;
57029;SDS011;42920;45.306;20.448;2022-08-14T03:01:25;11.55;;;9.35;;
57029;SDS011;42920;45.306;20.448;2022-08-14T03:03:52;11.48;;;9.23;;
57029;SDS011;42920;45.306;20.448;2022-08-14T03:06:20;14.48;;;10.23;;
57029;SDS011;42920;45.306;20.448;2022-08-14T03:08:50;11.18;;;8.80;;
57029;SDS011;42920;45.306;20.448;2022-08-14T03:11:17;10.73;;;9.63;;
57029;SDS011;42920;45.306;20.448;2022-08-14T03:13:46;10.43;;;8.85;;
57029;SDS011;42920;45.306;20.448;2022-08-14T03:16:16;11.68;;;9.52;;
57029;SDS011;42920;45.306;20.448;2022-08-14T03:18:45;13.88;;;9.63;;
57029;SDS011;42920;45.306;20.448;2022-08-14T03:21:13;11.20;;;9.57;;
57029;SDS011;42920;45.306;20.448;2022-08-14T03:23:42;10.02;;;8.55;;
57029;SDS011;42920;45.306;20.448;2022-08-14T03:26:12;11.20;;;9.52;;
57029;SDS011;42920;45.306;20.448;2022-08-14T03:28:43;9.98;;;8.98;;
57029;SDS011;42920;45.306;20.448;2022-08-14T03:31:11;10.95;;;9.13;;
57029;SDS011;42920;45.306;20.448;2022-08-14T03:33:37;10.98;;;8.88;;
57029;SDS011;42920;45.306;20.448;2022-08-14T03:36:11;10.40;;;9.00;;
57029;SDS011;42920;45.306;20.448;2022-08-14T03:38:40;10.27;;;8.30;;
57029;SDS011;42920;45.306;20.448;2022-08-14T03:41:28;10.23;;;8.52;;
57029;SDS011;42920;45.306;20.448;2022-08-14T03:43:54;10.13;;;8.40;;
57029;SDS011;42920;45.306;20.448;2022-08-14T03:46:23;13.75;;;9.70;;
57029;SDS011;42920;45.306;20.448;2022-08-14T03:48:52;11.38;;;9.77;;
57029;SDS011;42920;45.306;20.448;2022-08-14T03:51:21;11.27;;;9.40;;
57029;SDS011;42920;45.306;20.448;2022-08-14T03:53:53;12.85;;;9.93;;
57029;SDS011;42920;45.306;20.448;2022-08-14T03:56:24;11.07;;;8.70;;
57029;SDS011;42920;45.306;20.448;2022-08-14T03:58:52;10.30;;;9.20;;
57029;SDS011;42920;45.306;20.448;2022-08-14T04:01:20;10.60;;;9.40;;
57029;SDS011;42920;45.306;20.448;2022-08-14T04:03:47;12.15;;;9.93;;
57029;SDS011;42920;45.306;20.448;2022-08-14T04:06:14;11.25;;;9.55;;
57029;SDS011;42920;45.306;20.448;2022-08-14T04:08:41;13.20;;;9.45;;
57029;SDS011;42920;45.306;20.448;2022-08-14T04:11:08;13.35;;;9.90;;
57029;SDS011;42920;45.306;20.448;2022-08-14T04:13:38;11.35;;;9.43;;
57029;SDS011;42920;45.306;20.448;2022-08-14T04:16:07;13.30;;;10.02;;
57029;SDS011;42920;45.306;20.448;2022-08-14T04:18:39;11.23;;;9.05;;
57029;SDS011;42920;45.306;20.448;2022-08-14T04:21:05;11.60;;;9.93;;
57029;SDS011;42920;45.306;20.448;2022-08-14T04:23:31;11.75;;;9.35;;
57029;SDS011;42920;45.306;20.448;2022-08-14T04:25:57;10.75;;;9.10;;
57029;SDS011;42920;45.306;20.448;2022-08-14T04:28:24;13.50;;;9.23;;
57029;SDS011;42920;45.306;20.448;2022-08-14T04:30:50;11.05;;;8.98;;
57029;SDS011;42920;45.306;20.448;2022-08-14T04:33:16;11.90;;;10.00;;
57029;SDS011;42920;45.306;20.448;2022-08-14T04:35:41;13.68;;;10.60;;
57029;SDS011;42920;45.306;20.448;2022-08-14T04:38:08;13.32;;;9.50;;
57029;SDS011;42920;45.306;20.448;2022-08-14T04:40:53;13.43;;;10.77;;
57029;SDS011;42920;45.306;20.448;2022-08-14T04:43:38;11.98;;;9.40;;
57029;SDS011;42920;45.306;20.448;2022-08-14T04:46:05;12.20;;;9.63;;
57029;SDS011;42920;45.306;20.448;2022-08-14T04:48:36;10.93;;;9.75;;
57029;SDS011;42920;45.306;20.448;2022-08-14T04:51:03;16.20;;;9.45;;
57029;SDS011;42920;45.306;20.448;2022-08-14T04:53:31;13.20;;;9.85;;
57029;SDS011;42920;45.306;20.448;2022-08-14T04:55:58;12.82;;;9.52;;
57029;SDS011;42920;45.306;20.448;2022-08-14T04:58:25;13.40;;;10.15;;
57029;SDS011;42920;45.306;20.448;2022-08-14T05:00:52;11.38;;;9.35;;
57029;SDS011;42920;45.306;20.448;2022-08-14T05:03:20;11.73;;;9.38;;
57029;SDS011;42920;45.306;20.448;2022-08-14T05:05:47;16.65;;;9.65;;
57029;SDS011;42920;45.306;20.448;2022-08-14T05:08:14;12.82;;;9.50;;
57029;SDS011;42920;45.306;20.448;2022-08-14T05:10:48;11.43;;;9.38;;
57029;SDS011;42920;45.306;20.448;2022-08-14T05:13:16;12.30;;;9.35;;
57029;SDS011;42920;45.306;20.448;2022-08-14T05:15:49;12.63;;;9.45;;
57029;SDS011;42920;45.306;20.448;2022-08-14T05:18:18;11.05;;;9.52;;
57029;SDS011;42920;45.306;20.448;2022-08-14T05:20:50;14.23;;;9.48;;
57029;SDS011;42920;45.306;20.448;2022-08-14T05:23:18;12.70;;;9.63;;
57029;SDS011;42920;45.306;20.448;2022-08-14T05:25:49;11.18;;;8.93;;
57029;SDS011;42920;45.306;20.448;2022-08-14T05:28:19;11.27;;;8.90;;
57029;SDS011;42920;45.306;20.448;2022-08-14T05:30:50;13.43;;;8.10;;
57029;SDS011;42920;45.306;20.448;2022-08-14T05:33:18;12.27;;;9.52;;
57029;SDS011;42920;45.306;20.448;2022-08-14T05:35:45;12.40;;;9.10;;
57029;SDS011;42920;45.306;20.448;2022-08-14T05:38:13;10.38;;;8.63;;
57029;SDS011;42920;45.306;20.448;2022-08-14T05:40:41;12.23;;;9.38;;
57029;SDS011;42920;45.306;20.448;2022-08-14T05:43:07;11.30;;;8.65;;
57029;SDS011;42920;45.306;20.448;2022-08-14T05:45:33;9.80;;;8.68;;
57029;SDS011;42920;45.306;20.448;2022-08-14T05:48:00;11.68;;;10.07;;
57029;SDS011;42920;45.306;20.448;2022-08-14T05:50:27;14.90;;;8.35;;
57029;SDS011;42920;45.306;20.448;2022-08-14T05:52:52;12.85;;;8.50;;
57029;SDS011;42920;45.306;20.448;2022-08-14T05:55:19;10.65;;;8.80;;
57029;SDS011;42920;45.306;20.448;2022-08-14T05:57:56;9.93;;;8.15;;
57029;SDS011;42920;45.306;20.448;2022-08-14T06:00:27;9.45;;;8.45;;
57029;SDS011;42920;45.306;20.448;2022-08-14T06:02:58;9.10;;;8.10;;
57029;SDS011;42920;45.306;20.448;2022-08-14T06:05:25;9.73;;;8.25;;
57029;SDS011;42920;45.306;20.448;2022-08-14T06:07:51;10.50;;;8.77;;
57029;SDS011;42920;45.306;20.448;2022-08-14T06:10:17;10.07;;;8.00;;
57029;SDS011;42920;45.306;20.448;2022-08-14T06:12:43;10.73;;;7.97;;
57029;SDS011;42920;45.306;20.448;2022-08-14T06:15:09;9.00;;;7.97;;
57029;SDS011;42920;45.306;20.448;2022-08-14T06:17:45;9.13;;;7.85;;
57029;SDS011;42920;45.306;20.448;2022-08-14T06:20:15;9.32;;;8.00;;
57029;SDS011;42920;45.306;20.448;2022-08-14T06:22:42;10.30;;;8.25;;
57029;SDS011;42920;45.306;20.448;2022-08-14T06:25:10;14.40;;;8.25;;
57029;SDS011;42920;45.306;20.448;2022-08-14T06:27:38;10.10;;;7.53;;
57029;SDS011;42920;45.306;20.448;2022-08-14T06:30:06;14.25;;;8.10;;
57029;SDS011;42920;45.306;20.448;2022-08-14T06:32:33;10.88;;;7.65;;
57029;SDS011;42920;45.306;20.448;2022-08-14T06:35:00;9.30;;;7.32;;
57029;SDS011;42920;45.306;20.448;2022-08-14T06:37:36;8.55;;;7.47;;
57029;SDS011;42920;45.306;20.448;2022-08-14T06:40:05;11.43;;;7.45;;
57029;SDS011;42920;45.306;20.448;2022-08-14T06:42:32;12.13;;;6.95;;
57029;SDS011;42920;45.306;20.448;2022-08-14T06:44:58;9.88;;;7.32;;
57029;SDS011;42920;45.306;20.448;2022-08-14T06:47:25;9.38;;;7.05;;
57029;SDS011;42920;45.306;20.448;2022-08-14T06:49:51;11.82;;;7.50;;
57029;SDS011;42920;45.306;20.448;2022-08-14T06:52:17;9.18;;;7.82;;
57029;SDS011;42920;45.306;20.448;2022-08-14T06:54:43;8.77;;;7.28;;
57029;SDS011;42920;45.306;20.448;2022-08-14T06:57:09;12.00;;;7.57;;
57029;SDS011;42920;45.306;20.448;2022-08-14T06:59:35;8.32;;;6.78;;
57029;SDS011;42920;45.306;20.448;2022-08-14T07:02:01;8.95;;;7.38;;
57029;SDS011;42920;45.306;20.448;2022-08-14T07:04:45;10.93;;;7.63;;
57029;SDS011;42920;45.306;20.448;2022-08-14T07:07:40;8.18;;;6.90;;
57029;SDS011;42920;45.306;20.448;2022-08-14T07:10:06;8.98;;;7.15;;
57029;SDS011;42920;45.306;20.448;2022-08-14T07:12:33;8.40;;;7.07;;
57029;SDS011;42920;45.306;20.448;2022-08-14T07:15:00;11.98;;;7.53;;
57029;SDS011;42920;45.306;20.448;2022-08-14T07:17:26;7.68;;;6.30;;
57029;SDS011;42920;45.306;20.448;2022-08-14T07:19:51;8.40;;;6.80;;
57029;SDS011;42920;45.306;20.448;2022-08-14T07:22:17;10.15;;;6.82;;
57029;SDS011;42920;45.306;20.448;2022-08-14T07:24:43;12.20;;;7.07;;
57029;SDS011;42920;45.306;20.448;2022-08-14T07:27:09;11.50;;;7.38;;
57029;SDS011;42920;45.306;20.448;2022-08-14T07:29:34;8.05;;;7.05;;
57029;SDS011;42920;45.306;20.448;2022-08-14T07:32:00;8.15;;;6.68;;
57029;SDS011;42920;45.306;20.448;2022-08-14T07:34:26;10.30;;;6.72;;
57029;SDS011;42920;45.306;20.448;2022-08-14T07:36:53;7.85;;;6.80;;
57029;SDS011;42920;45.306;20.448;2022-08-14T07:39:19;10.23;;;7.13;;
57029;SDS011;42920;45.306;20.448;2022-08-14T07:41:45;11.73;;;7.18;;
57029;SDS011;42920;45.306;20.448;2022-08-14T07:44:11;10.73;;;7.03;;
57029;SDS011;42920;45.306;20.448;2022-08-14T07:46:37;8.63;;;7.32;;
57029;SDS011;42920;45.306;20.448;2022-08-14T07:49:06;10.20;;;7.80;;
57029;SDS011;42920;45.306;20.448;2022-08-14T07:51:33;7.63;;;6.68;;
57029;SDS011;42920;45.306;20.448;2022-08-14T07:54:01;7.78;;;6.82;;
57029;SDS011;42920;45.306;20.448;2022-08-14T07:56:28;9.40;;;7.72;;
57029;SDS011;42920;45.306;20.448;2022-08-14T07:58:53;11.48;;;8.63;;
57029;SDS011;42920;45.306;20.448;2022-08-14T08:01:19;8.05;;;7.07;;
57029;SDS011;42920;45.306;20.448;2022-08-14T08:03:45;8.73;;;7.50;;
57029;SDS011;42920;45.306;20.448;2022-08-14T08:06:16;11.90;;;7.93;;
57029;SDS011;42920;45.306;20.448;2022-08-14T08:08:42;14.98;;;8.00;;
57029;SDS011;42920;45.306;20.448;2022-08-14T08:11:08;9.52;;;7.15;;
57029;SDS011;42920;45.306;20.448;2022-08-14T08:13:36;9.40;;;8.38;;
57029;SDS011;42920;45.306;20.448;2022-08-14T08:16:06;8.18;;;7.38;;
57029;SDS011;42920;45.306;20.448;2022-08-14T08:18:32;13.48;;;8.35;;
57029;SDS011;42920;45.306;20.448;2022-08-14T08:20:58;10.82;;;7.75;;
57029;SDS011;42920;45.306;20.448;2022-08-14T08:23:25;11.18;;;7.30;;
57029;SDS011;42920;45.306;20.448;2022-08-14T08:25:53;10.93;;;7.35;;
57029;SDS011;42920;45.306;20.448;2022-08-14T08:28:23;10.68;;;7.43;;
57029;SDS011;42920;45.306;20.448;2022-08-14T08:30:53;8.95;;;7.65;;
57029;SDS011;42920;45.306;20.448;2022-08-14T08:33:22;9.18;;;7.05;;
57029;SDS011;42920;45.306;20.448;2022-08-14T08:35:52;12.02;;;7.60;;
57029;SDS011;42920;45.306;20.448;2022-08-14T08:38:22;8.75;;;7.85;;
57029;SDS011;42920;45.306;20.448;2022-08-14T08:40:50;13.63;;;7.97;;
57029;SDS011;42920;45.306;20.448;2022-08-14T08:43:22;10.93;;;7.80;;
57029;SDS011;42920;45.306;20.448;2022-08-14T08:46:05;10.18;;;7.65;;
57029;SDS011;42920;45.306;20.448;2022-08-14T08:54:02;8.38;;;7.50;;
57029;SDS011;42920;45.306;20.448;2022-08-14T08:56:47;10.07;;;7.82;;
57029;SDS011;42920;45.306;20.448;2022-08-14T08:59:20;11.48;;;7.95;;
57029;SDS011;42920;45.306;20.448;2022-08-14T09:01:50;14.10;;;8.20;;
57029;SDS011;42920;45.306;20.448;2022-08-14T09:04:22;10.32;;;7.68;;
57029;SDS011;42920;45.306;20.448;2022-08-14T09:06:49;11.98;;;8.05;;
57029;SDS011;42920;45.306;20.448;2022-08-14T09:09:22;14.32;;;8.43;;
57029;SDS011;42920;45.306;20.448;2022-08-14T09:11:51;10.23;;;7.90;;
57029;SDS011;42920;45.306;20.448;2022-08-14T09:14:21;12.18;;;8.05;;
57029;SDS011;42920;45.306;20.448;2022-08-14T09:16:48;11.07;;;8.00;;
57029;SDS011;42920;45.306;20.448;2022-08-14T09:19:15;11.93;;;7.72;;
57029;SDS011;42920;45.306;20.448;2022-08-14T09:21:41;9.18;;;7.85;;
57029;SDS011;42920;45.306;20.448;2022-08-14T09:24:07;9.45;;;7.57;;
57029;SDS011;42920;45.306;20.448;2022-08-14T09:26:34;11.20;;;8.20;;
57029;SDS011;42920;45.306;20.448;2022-08-14T09:29:01;9.38;;;8.38;;
57029;SDS011;42920;45.306;20.448;2022-08-14T09:31:28;11.73;;;8.23;;
57029;SDS011;42920;45.306;20.448;2022-08-14T09:47:04;12.48;;;8.70;;
57029;SDS011;42920;45.306;20.448;2022-08-14T09:49:33;10.18;;;8.52;;
57029;SDS011;42920;45.306;20.448;2022-08-14T09:52:05;11.77;;;8.25;;
57029;SDS011;42920;45.306;20.448;2022-08-14T09:54:41;9.52;;;7.82;;
57029;SDS011;42920;45.306;20.448;2022-08-14T09:57:22;11.68;;;9.45;;
57029;SDS011;42920;45.306;20.448;2022-08-14T09:59:49;13.98;;;8.32;;
57029;SDS011;42920;45.306;20.448;2022-08-14T10:02:20;13.43;;;9.05;;
57029;SDS011;42920;45.306;20.448;2022-08-14T10:05:09;10.18;;;8.68;;
57029;SDS011;42920;45.306;20.448;2022-08-14T10:07:36;12.63;;;8.82;;
57029;SDS011;42920;45.306;20.448;2022-08-14T10:10:34;10.98;;;8.93;;
57029;SDS011;42920;45.306;20.448;2022-08-14T10:13:06;10.95;;;9.05;;
57029;SDS011;42920;45.306;20.448;2022-08-14T10:15:45;10.73;;;8.80;;
57029;SDS011;42920;45.306;20.448;2022-08-14T10:18:13;10.18;;;8.73;;
57029;SDS011;42920;45.306;20.448;2022-08-14T10:20:53;9.57;;;8.57;;
57029;SDS011;42920;45.306;20.448;2022-08-14T10:23:37;14.32;;;7.85;;
57029;SDS011;42920;45.306;20.448;2022-08-14T10:26:06;10.55;;;8.88;;
57029;SDS011;42920;45.306;20.448;2022-08-14T10:28:37;10.25;;;8.55;;
57029;SDS011;42920;45.306;20.448;2022-08-14T10:34:06;10.35;;;7.85;;
57029;SDS011;42920;45.306;20.448;2022-08-14T10:36:37;10.57;;;8.38;;
57029;SDS011;42920;45.306;20.448;2022-08-14T10:39:15;9.23;;;7.95;;
57029;SDS011;42920;45.306;20.448;2022-08-14T10:44:40;9.07;;;8.00;;
57029;SDS011;42920;45.306;20.448;2022-08-14T10:47:12;10.35;;;7.53;;
57029;SDS011;42920;45.306;20.448;2022-08-14T10:49:39;10.00;;;7.80;;
57029;SDS011;42920;45.306;20.448;2022-08-14T10:52:24;10.55;;;7.95;;
57029;SDS011;42920;45.306;20.448;2022-08-14T10:54:51;10.48;;;8.27;;
57029;SDS011;42920;45.306;20.448;2022-08-14T10:57:32;9.98;;;7.47;;
57029;SDS011;42920;45.306;20.448;2022-08-14T11:00:00;9.57;;;8.07;;
57029;SDS011;42920;45.306;20.448;2022-08-14T11:02:38;8.50;;;7.45;;
57029;SDS011;42920;45.306;20.448;2022-08-14T11:05:07;8.65;;;7.60;;
57029;SDS011;42920;45.306;20.448;2022-08-14T11:07:38;10.13;;;7.90;;
57029;SDS011;42920;45.306;20.448;2022-08-14T11:10:18;14.63;;;7.78;;
57029;SDS011;42920;45.306;20.448;2022-08-14T11:12:46;12.73;;;8.63;;
57029;SDS011;42920;45.306;20.448;2022-08-14T11:15:15;7.95;;;7.03;;
57029;SDS011;42920;45.306;20.448;2022-08-14T11:17:43;10.88;;;7.70;;
57029;SDS011;42920;45.306;20.448;2022-08-14T11:20:11;10.95;;;7.07;;
57029;SDS011;42920;45.306;20.448;2022-08-14T11:22:39;10.02;;;7.70;;
57029;SDS011;42920;45.306;20.448;2022-08-14T11:25:07;9.27;;;7.30;;
57029;SDS011;42920;45.306;20.448;2022-08-14T11:27:39;8.85;;;7.40;;
57029;SDS011;42920;45.306;20.448;2022-08-14T11:30:08;9.82;;;6.65;;
57029;SDS011;42920;45.306;20.448;2022-08-14T11:32:37;8.93;;;7.00;;
57029;SDS011;42920;45.306;20.448;2022-08-14T11:35:13;9.15;;;7.28;;
57029;SDS011;42920;45.306;20.448;2022-08-14T11:37:48;11.77;;;7.80;;
57029;SDS011;42920;45.306;20.448;2022-08-14T11:40:17;8.80;;;6.72;;
57029;SDS011;42920;45.306;20.448;2022-08-14T11:42:45;12.75;;;7.75;;
57029;SDS011;42920;45.306;20.448;2022-08-14T11:45:20;11.73;;;7.55;;
57029;SDS011;42920;45.306;20.448;2022-08-14T11:47:51;9.65;;;6.68;;
57029;SDS011;42920;45.306;20.448;2022-08-14T11:50:23;7.40;;;6.03;;
57029;SDS011;42920;45.306;20.448;2022-08-14T11:52:54;10.30;;;6.68;;
57029;SDS011;42920;45.306;20.448;2022-08-14T11:55:22;7.95;;;6.78;;
57029;SDS011;42920;45.306;20.448;2022-08-14T11:57:58;7.85;;;6.47;;
57029;SDS011;42920;45.306;20.448;2022-08-14T12:00:44;8.10;;;5.60;;
57029;SDS011;42920;45.306;20.448;2022-08-14T12:03:13;7.53;;;6.70;;
57029;SDS011;42920;45.306;20.448;2022-08-14T12:05:39;12.18;;;6.88;;
57029;SDS011;42920;45.306;20.448;2022-08-14T12:08:07;10.27;;;5.90;;
57029;SDS011;42920;45.306;20.448;2022-08-14T12:10:37;7.72;;;6.13;;
57029;SDS011;42920;45.306;20.448;2022-08-14T12:13:11;7.00;;;5.85;;
57029;SDS011;42920;45.306;20.448;2022-08-14T12:15:45;8.95;;;6.03;;
57029;SDS011;42920;45.306;20.448;2022-08-14T12:18:34;11.95;;;6.18;;
57029;SDS011;42920;45.306;20.448;2022-08-14T12:21:13;5.95;;;5.35;;
57029;SDS011;42920;45.306;20.448;2022-08-14T12:23:44;11.43;;;6.25;;
57029;SDS011;42920;45.306;20.448;2022-08-14T12:26:15;6.28;;;5.68;;
57029;SDS011;42920;45.306;20.448;2022-08-14T12:28:48;8.38;;;5.93;;
57029;SDS011;42920;45.306;20.448;2022-08-14T12:31:19;7.65;;;6.60;;
57029;SDS011;42920;45.306;20.448;2022-08-14T12:33:55;7.40;;;5.47;;
57029;SDS011;42920;45.306;20.448;2022-08-14T12:36:25;6.30;;;5.18;;
57029;SDS011;42920;45.306;20.448;2022-08-14T12:38:55;7.22;;;6.18;;
57029;SDS011;42920;45.306;20.448;2022-08-14T12:41:23;7.05;;;6.18;;
57029;SDS011;42920;45.306;20.448;2022-08-14T12:43:54;7.28;;;5.93;;
57029;SDS011;42920;45.306;20.448;2022-08-14T12:46:22;7.63;;;5.82;;
57029;SDS011;42920;45.306;20.448;2022-08-14T12:48:51;7.85;;;5.60;;
57029;SDS011;42920;45.306;20.448;2022-08-14T12:51:19;9.10;;;5.05;;
57029;SDS011;42920;45.306;20.448;2022-08-14T12:53:50;6.70;;;6.00;;
57029;SDS011;42920;45.306;20.448;2022-08-14T12:56:20;5.95;;;5.05;;
57029;SDS011;42920;45.306;20.448;2022-08-14T12:58:51;8.73;;;5.78;;
57029;SDS011;42920;45.306;20.448;2022-08-14T13:01:19;8.05;;;6.43;;
57029;SDS011;42920;45.306;20.448;2022-08-14T13:03:47;9.00;;;5.82;;
57029;SDS011;42920;45.306;20.448;2022-08-14T13:06:13;8.20;;;5.63;;
57029;SDS011;42920;45.306;20.448;2022-08-14T13:08:39;10.40;;;5.90;;
57029;SDS011;42920;45.306;20.448;2022-08-14T13:11:12;10.10;;;5.53;;
57029;SDS011;42920;45.306;20.448;2022-08-14T13:13:41;10.75;;;5.75;;
57029;SDS011;42920;45.306;20.448;2022-08-14T13:16:11;7.68;;;6.10;;
57029;SDS011;42920;45.306;20.448;2022-08-14T13:18:41;7.80;;;5.65;;
57029;SDS011;42920;45.306;20.448;2022-08-14T13:21:10;6.07;;;5.35;;
57029;SDS011;42920;45.306;20.448;2022-08-14T13:23:37;6.63;;;5.55;;
57029;SDS011;42920;45.306;20.448;2022-08-14T13:26:07;6.95;;;5.07;;
57029;SDS011;42920;45.306;20.448;2022-08-14T13:28:33;7.53;;;5.32;;
57029;SDS011;42920;45.306;20.448;2022-08-14T13:31:04;6.97;;;4.97;;
57029;SDS011;42920;45.306;20.448;2022-08-14T13:33:33;6.53;;;5.75;;
57029;SDS011;42920;45.306;20.448;2022-08-14T13:36:01;8.45;;;5.75;;
57029;SDS011;42920;45.306;20.448;2022-08-14T13:38:27;7.82;;;5.35;;
57029;SDS011;42920;45.306;20.448;2022-08-14T13:40:56;6.40;;;5.07;;
57029;SDS011;42920;45.306;20.448;2022-08-14T13:43:22;8.82;;;5.60;;
57029;SDS011;42920;45.306;20.448;2022-08-14T13:45:52;9.15;;;5.13;;
57029;SDS011;42920;45.306;20.448;2022-08-14T13:48:20;7.20;;;5.57;;
57029;SDS011;42920;45.306;20.448;2022-08-14T13:50:47;7.38;;;5.38;;
57029;SDS011;42920;45.306;20.448;2022-08-14T13:53:20;6.93;;;5.40;;
57029;SDS011;42920;45.306;20.448;2022-08-14T13:55:48;9.55;;;5.35;;
57029;SDS011;42920;45.306;20.448;2022-08-14T13:58:17;6.32;;;5.13;;
57029;SDS011;42920;45.306;20.448;2022-08-14T14:00:45;9.25;;;5.47;;
57029;SDS011;42920;45.306;20.448;2022-08-14T14:03:15;10.65;;;5.00;;
57029;SDS011;42920;45.306;20.448;2022-08-14T14:05:41;7.60;;;4.95;;
57029;SDS011;42920;45.306;20.448;2022-08-14T14:08:07;6.97;;;5.20;;
57029;SDS011;42920;45.306;20.448;2022-08-14T14:10:36;10.25;;;5.15;;
57029;SDS011;42920;45.306;20.448;2022-08-14T14:13:02;7.82;;;5.53;;
57029;SDS011;42920;45.306;20.448;2022-08-14T14:15:29;6.88;;;5.30;;
57029;SDS011;42920;45.306;20.448;2022-08-14T14:17:55;12.43;;;5.93;;
57029;SDS011;42920;45.306;20.448;2022-08-14T14:20:23;7.97;;;5.15;;
57029;SDS011;42920;45.306;20.448;2022-08-14T14:22:50;11.25;;;5.90;;
57029;SDS011;42920;45.306;20.448;2022-08-14T14:25:17;7.25;;;5.40;;
57029;SDS011;42920;45.306;20.448;2022-08-14T14:27:45;6.13;;;5.18;;
57029;SDS011;42920;45.306;20.448;2022-08-14T14:30:13;6.57;;;5.72;;
57029;SDS011;42920;45.306;20.448;2022-08-14T14:32:41;7.03;;;5.55;;
57029;SDS011;42920;45.306;20.448;2022-08-14T14:35:12;7.82;;;5.90;;
57029;SDS011;42920;45.306;20.448;2022-08-14T14:37:40;7.10;;;5.70;;
57029;SDS011;42920;45.306;20.448;2022-08-14T14:40:07;7.18;;;5.28;;
57029;SDS011;42920;45.306;20.448;2022-08-14T14:42:36;8.60;;;5.50;;
57029;SDS011;42920;45.306;20.448;2022-08-14T14:45:13;8.02;;;5.47;;
57029;SDS011;42920;45.306;20.448;2022-08-14T14:47:45;7.13;;;6.13;;
57029;SDS011;42920;45.306;20.448;2022-08-14T14:50:19;8.15;;;5.80;;
57029;SDS011;42920;45.306;20.448;2022-08-14T14:52:46;7.68;;;5.80;;
57029;SDS011;42920;45.306;20.448;2022-08-14T14:55:13;8.10;;;5.72;;
57029;SDS011;42920;45.306;20.448;2022-08-14T14:57:40;6.18;;;5.50;;
57029;SDS011;42920;45.306;20.448;2022-08-14T15:00:16;9.15;;;6.65;;